CMA-CGM Fort Saint Pierre — FQFM — position and weather

sailwx.info

Track history (hours):
 
Tides and Currents Weather Stations Pressure Air Temp Water Temp Dewpoint Dewpoint Depression Visibility Wind Speed Wind Dir Waves Ship Positions

CMA-CGM Fort Saint Pierre

Last reported at 2014-Oct-25 02:30 UTC. Time now 2014-Oct-25 03:37 UTC.
Position N 49°39' W 000°32'.

Length 197 m; beam 30 m.

Type: Ship (hazmat cat A). MMSI: 226328000.

Date/timePositionNaut miles runAvg speedWind from/ knotsBaromVisibWave heightAir tempDewpointWater temp
2014-Oct-25 02:30N 49°39' W 000°32'1819.2
2014-Oct-25 01:33N 49°32' W 000°07'1110.9
2014-Oct-25 00:34N 49°28' E 000°09'0 0.0
2014-Oct-24 23:33N 49°28' E 000°09'0 0.0
2014-Oct-24 22:33N 49°28' E 000°09'0 0.0
2014-Oct-24 21:33N 49°28' E 000°09'0 0.0
2014-Oct-24 20:33N 49°28' E 000°09'0 0.0
2014-Oct-24 19:33N 49°28' E 000°09'0 0.0
2014-Oct-24 18:33N 49°28' E 000°09'0 0.0
2014-Oct-24 17:33N 49°28' E 000°09'0 0.0
2014-Oct-24 16:33N 49°28' E 000°09'0 0.0
2014-Oct-24 15:33N 49°28' E 000°09'0 0.0
2014-Oct-24 14:33N 49°28' E 000°09'0 0.0
2014-Oct-24 13:33N 49°28' E 000°09'0 0.0
2014-Oct-24 12:33N 49°28' E 000°09'0 0.0
2014-Oct-24 11:33N 49°28' E 000°09'0 0.0
2014-Oct-24 10:33N 49°28' E 000°09'0 0.0
2014-Oct-24 09:33N 49°28' E 000°09'0 0.0
2014-Oct-24 08:33N 49°28' E 000°09'0 0.0
2014-Oct-24 07:33N 49°28' E 000°09'0 0.0
2014-Oct-24 06:33N 49°28' E 000°09'0 0.0
2014-Oct-24 05:30N 49°28' E 000°09'0 0.0
2014-Oct-24 04:33N 49°28' E 000°09'0 0.0
2014-Oct-24 03:33N 49°28' E 000°09'0 0.0
2014-Oct-24 02:33N 49°28' E 000°09'0 0.0
2014-Oct-24 01:33N 49°28' E 000°09'0 0.0
2014-Oct-24 00:33N 49°28' E 000°09'0 0.0
2014-Oct-23 23:33N 49°28' E 000°09'1 1.0
2014-Oct-23 22:33N 49°28' E 000°08'2 2.3
2014-Oct-23 21:33N 49°26' E 000°07'1212.1
2014-Oct-23 20:33N 49°27' E 000°26'7 6.4
2014-Oct-23 19:28N 49°26' E 000°36'3 0.2
2014-Oct-22 20:33N 49°28' E 000°32'1211.8
2014-Oct-22 19:33N 49°26' E 000°14'1211.6
2014-Oct-22 18:34N 49°28' W 000°03'1211.8
2014-Oct-22 17:34N 49°39' W 000°11'4521.6
2014-Oct-22 15:28N 50°24' W 000°06'2122.6
2014-Oct-22 14:34N 50°33' E 000°23'2922.5
2014-Oct-22 13:17N 50°48' E 001°02'1521.3
2014-Oct-22 12:34N 50°57' E 001°21'1515.2
2014-Oct-22 11:34N 51°02' E 001°44'1515.5
2014-Oct-22 10:33N 51°03' E 002°09'3 2.4
2014-Oct-22 09:30N 51°01' E 002°11'0 0.0
2014-Oct-22 08:33N 51°01' E 002°11'0 0.0
2014-Oct-22 07:30N 51°01' E 002°11'0 0.0
2014-Oct-22 06:33N 51°01' E 002°11'0 0.0
2014-Oct-22 05:33N 51°01' E 002°11'0 0.0
2014-Oct-22 04:33N 51°01' E 002°11'0 0.0
2014-Oct-22 03:33N 51°01' E 002°11'0 0.0
2014-Oct-22 02:33N 51°01' E 002°11'0 0.0
2014-Oct-22 01:33N 51°01' E 002°11'0 0.0
2014-Oct-22 00:33N 51°01' E 002°11'0 0.0
2014-Oct-21 23:33N 51°01' E 002°11'0 0.0
2014-Oct-21 22:33N 51°01' E 002°11'0 0.0
2014-Oct-21 21:33N 51°01' E 002°11'0 0.0
2014-Oct-21 20:33N 51°01' E 002°11'0 0.0
2014-Oct-21 19:33N 51°01' E 002°11'0 0.0
2014-Oct-21 18:33N 51°01' E 002°11'0 0.0
2014-Oct-21 17:30N 51°01' E 002°11'0 0.0
2014-Oct-21 16:33N 51°01' E 002°11'0 0.0
2014-Oct-21 15:33N 51°01' E 002°11'0 0.0
2014-Oct-21 14:30N 51°01' E 002°11'0 0.0
2014-Oct-21 13:33N 51°01' E 002°11'0 0.0
2014-Oct-21 12:33N 51°01' E 002°11'0 0.0
2014-Oct-21 11:30N 51°01' E 002°11'0 0.0
2014-Oct-21 10:33N 51°01' E 002°11'0 0.0
2014-Oct-21 09:33N 51°01' E 002°11'0 0.0
2014-Oct-21 08:33N 51°01' E 002°11'0 0.0
2014-Oct-21 07:33N 51°01' E 002°11'0 0.0
2014-Oct-21 06:33N 51°01' E 002°11'0 0.0
2014-Oct-21 05:33N 51°01' E 002°11'0 0.0
2014-Oct-21 04:33N 51°01' E 002°11'0 0.0
2014-Oct-21 03:30N 51°01' E 002°11'0 0.0
2014-Oct-21 02:33N 51°01' E 002°11'0 0.0
2014-Oct-21 01:30N 51°01' E 002°11'0 0.0
2014-Oct-21 00:30N 51°01' E 002°11'0 0.0
2014-Oct-20 23:33N 51°01' E 002°11'0 0.0
2014-Oct-20 22:33N 51°01' E 002°11'0 0.0
2014-Oct-20 21:33N 51°01' E 002°11'0 0.0
2014-Oct-20 20:24N 51°01' E 002°11'0 0.0
2014-Oct-20 19:33N 51°01' E 002°11'0 0.0
2014-Oct-20 18:33N 51°01' E 002°11'0 0.0
2014-Oct-20 17:33N 51°01' E 002°11'0 0.0
2014-Oct-20 16:33N 51°01' E 002°11'0 0.0
2014-Oct-20 15:33N 51°01' E 002°11'0 0.0
2014-Oct-20 14:33N 51°01' E 002°11'0 0.0
2014-Oct-20 13:33N 51°01' E 002°11'0 0.0
2014-Oct-20 12:33N 51°01' E 002°11'0 0.0
2014-Oct-20 11:33N 51°01' E 002°11'0 0.0
2014-Oct-20 10:33N 51°01' E 002°11'0 0.0
2014-Oct-20 09:33N 51°01' E 002°11'0 0.0
2014-Oct-20 08:27N 51°01' E 002°11'0 0.0
2014-Oct-20 07:30N 51°01' E 002°11'0 0.0
2014-Oct-20 06:30N 51°01' E 002°11'0 0.0
2014-Oct-20 05:30N 51°01' E 002°11'0 0.0
2014-Oct-20 04:33N 51°01' E 002°11'0 0.0
2014-Oct-20 03:33N 51°01' E 002°11'1 0.9
2014-Oct-20 02:34N 51°02' E 002°10'1313.4
2014-Oct-20 01:34N 51°02' E 001°49'9 9.1
2014-Oct-20 00:34N 50°58' E 001°36'1414.2
2014-Oct-19 23:33N 50°46' E 001°25'30818.1
2014-Oct-19 06:34N 49°07' W 006°10'1817.9
2014-Oct-19 05:34N 48°57' W 006°32'  
2014-Oct-17 01:28N 37°50' W 023°38'1820.1
2014-Oct-17 00:34N 37°37' W 023°53'2020.2
2014-Oct-16 23:34N 37°22' W 024°11'2020.5
2014-Oct-16 22:34N 37°07' W 024°28'2120.9
2014-Oct-16 21:34N 36°52' W 024°46'2020.4
2014-Oct-16 20:34N 36°38' W 025°05'2020.4
2014-Oct-16 19:34N 36°28' W 025°27'2020.4
2014-Oct-16 18:34N 36°17' W 025°49'  
Track history (hours):
 
Tides and Currents Weather Stations Pressure Air Temp Water Temp Dewpoint Dewpoint Depression Visibility Wind Speed Wind Dir Waves Ship Positions

CMA-CGM Fort Saint Pierre

Last reported at 2014-Oct-25 02:30 UTC. Time now 2014-Oct-25 03:37 UTC.
Position N 49°39' W 000°32'.

Length 197 m; beam 30 m.

Type: Ship (hazmat cat A). MMSI: 226328000.

Date/timePositionNaut miles runAvg speedWind from/ knotsBaromVisibWave heightAir tempDewpointWater temp
2014-Oct-25 02:30N 49°39' W 000°32'1819.2
2014-Oct-25 01:33N 49°32' W 000°07'1110.9
2014-Oct-25 00:34N 49°28' E 000°09'0 0.0
2014-Oct-24 23:33N 49°28' E 000°09'0 0.0
2014-Oct-24 22:33N 49°28' E 000°09'0 0.0
2014-Oct-24 21:33N 49°28' E 000°09'0 0.0
2014-Oct-24 20:33N 49°28' E 000°09'0 0.0
2014-Oct-24 19:33N 49°28' E 000°09'0 0.0
2014-Oct-24 18:33N 49°28' E 000°09'0 0.0
2014-Oct-24 17:33N 49°28' E 000°09'0 0.0
2014-Oct-24 16:33N 49°28' E 000°09'0 0.0
2014-Oct-24 15:33N 49°28' E 000°09'0 0.0
2014-Oct-24 14:33N 49°28' E 000°09'0 0.0
2014-Oct-24 13:33N 49°28' E 000°09'0 0.0
2014-Oct-24 12:33N 49°28' E 000°09'0 0.0
2014-Oct-24 11:33N 49°28' E 000°09'0 0.0
2014-Oct-24 10:33N 49°28' E 000°09'0 0.0
2014-Oct-24 09:33N 49°28' E 000°09'0 0.0
2014-Oct-24 08:33N 49°28' E 000°09'0 0.0
2014-Oct-24 07:33N 49°28' E 000°09'0 0.0
2014-Oct-24 06:33N 49°28' E 000°09'0 0.0
2014-Oct-24 05:30N 49°28' E 000°09'0 0.0
2014-Oct-24 04:33N 49°28' E 000°09'0 0.0
2014-Oct-24 03:33N 49°28' E 000°09'0 0.0
2014-Oct-24 02:33N 49°28' E 000°09'0 0.0
2014-Oct-24 01:33N 49°28' E 000°09'0 0.0
2014-Oct-24 00:33N 49°28' E 000°09'0 0.0
2014-Oct-23 23:33N 49°28' E 000°09'1 1.0
2014-Oct-23 22:33N 49°28' E 000°08'2 2.3
2014-Oct-23 21:33N 49°26' E 000°07'1212.1
2014-Oct-23 20:33N 49°27' E 000°26'7 6.4
2014-Oct-23 19:28N 49°26' E 000°36'3 0.2
2014-Oct-22 20:33N 49°28' E 000°32'1211.8
2014-Oct-22 19:33N 49°26' E 000°14'1211.6
2014-Oct-22 18:34N 49°28' W 000°03'1211.8
2014-Oct-22 17:34N 49°39' W 000°11'4521.6
2014-Oct-22 15:28N 50°24' W 000°06'2122.6
2014-Oct-22 14:34N 50°33' E 000°23'2922.5
2014-Oct-22 13:17N 50°48' E 001°02'1521.3
2014-Oct-22 12:34N 50°57' E 001°21'1515.2
2014-Oct-22 11:34N 51°02' E 001°44'1515.5
2014-Oct-22 10:33N 51°03' E 002°09'3 2.4
2014-Oct-22 09:30N 51°01' E 002°11'0 0.0
2014-Oct-22 08:33N 51°01' E 002°11'0 0.0
2014-Oct-22 07:30N 51°01' E 002°11'0 0.0
2014-Oct-22 06:33N 51°01' E 002°11'0 0.0
2014-Oct-22 05:33N 51°01' E 002°11'0 0.0
2014-Oct-22 04:33N 51°01' E 002°11'0 0.0
2014-Oct-22 03:33N 51°01' E 002°11'0 0.0
2014-Oct-22 02:33N 51°01' E 002°11'0 0.0
2014-Oct-22 01:33N 51°01' E 002°11'0 0.0
2014-Oct-22 00:33N 51°01' E 002°11'0 0.0
2014-Oct-21 23:33N 51°01' E 002°11'0 0.0
2014-Oct-21 22:33N 51°01' E 002°11'0 0.0
2014-Oct-21 21:33N 51°01' E 002°11'0 0.0
2014-Oct-21 20:33N 51°01' E 002°11'0 0.0
2014-Oct-21 19:33N 51°01' E 002°11'0 0.0
2014-Oct-21 18:33N 51°01' E 002°11'0 0.0
2014-Oct-21 17:30N 51°01' E 002°11'0 0.0
2014-Oct-21 16:33N 51°01' E 002°11'0 0.0
2014-Oct-21 15:33N 51°01' E 002°11'0 0.0
2014-Oct-21 14:30N 51°01' E 002°11'0 0.0
2014-Oct-21 13:33N 51°01' E 002°11'0 0.0
2014-Oct-21 12:33N 51°01' E 002°11'0 0.0
2014-Oct-21 11:30N 51°01' E 002°11'0 0.0
2014-Oct-21 10:33N 51°01' E 002°11'0 0.0
2014-Oct-21 09:33N 51°01' E 002°11'0 0.0
2014-Oct-21 08:33N 51°01' E 002°11'0 0.0
2014-Oct-21 07:33N 51°01' E 002°11'0 0.0
2014-Oct-21 06:33N 51°01' E 002°11'0 0.0
2014-Oct-21 05:33N 51°01' E 002°11'0 0.0
2014-Oct-21 04:33N 51°01' E 002°11'0 0.0
2014-Oct-21 03:30N 51°01' E 002°11'0 0.0
2014-Oct-21 02:33N 51°01' E 002°11'0 0.0
2014-Oct-21 01:30N 51°01' E 002°11'0 0.0
2014-Oct-21 00:30N 51°01' E 002°11'0 0.0
2014-Oct-20 23:33N 51°01' E 002°11'0 0.0
2014-Oct-20 22:33N 51°01' E 002°11'0 0.0
2014-Oct-20 21:33N 51°01' E 002°11'0 0.0
2014-Oct-20 20:24N 51°01' E 002°11'0 0.0
2014-Oct-20 19:33N 51°01' E 002°11'0 0.0
2014-Oct-20 18:33N 51°01' E 002°11'0 0.0
2014-Oct-20 17:33N 51°01' E 002°11'0 0.0
2014-Oct-20 16:33N 51°01' E 002°11'0 0.0
2014-Oct-20 15:33N 51°01' E 002°11'0 0.0
2014-Oct-20 14:33N 51°01' E 002°11'0 0.0
2014-Oct-20 13:33N 51°01' E 002°11'0 0.0
2014-Oct-20 12:33N 51°01' E 002°11'0 0.0
2014-Oct-20 11:33N 51°01' E 002°11'0 0.0
2014-Oct-20 10:33N 51°01' E 002°11'0 0.0
2014-Oct-20 09:33N 51°01' E 002°11'0 0.0
2014-Oct-20 08:27N 51°01' E 002°11'0 0.0
2014-Oct-20 07:30N 51°01' E 002°11'0 0.0
2014-Oct-20 06:30N 51°01' E 002°11'0 0.0
2014-Oct-20 05:30N 51°01' E 002°11'0 0.0
2014-Oct-20 04:33N 51°01' E 002°11'0 0.0
2014-Oct-20 03:33N 51°01' E 002°11'1 0.9
2014-Oct-20 02:34N 51°02' E 002°10'1313.4
2014-Oct-20 01:34N 51°02' E 001°49'9 9.1
2014-Oct-20 00:34N 50°58' E 001°36'1414.2
2014-Oct-19 23:33N 50°46' E 001°25'30818.1
2014-Oct-19 06:34N 49°07' W 006°10'1817.9
2014-Oct-19 05:34N 48°57' W 006°32'  
2014-Oct-17 01:28N 37°50' W 023°38'1820.1
2014-Oct-17 00:34N 37°37' W 023°53'2020.2
2014-Oct-16 23:34N 37°22' W 024°11'2020.5
2014-Oct-16 22:34N 37°07' W 024°28'2120.9
2014-Oct-16 21:34N 36°52' W 024°46'2020.4
2014-Oct-16 20:34N 36°38' W 025°05'2020.4
2014-Oct-16 19:34N 36°28' W 025°27'2020.4
2014-Oct-16 18:34N 36°17' W 025°49'  

Dump ship's entire track history